Terminal Aerodrome Forecast
Issued by NWS Pittsburgh, PA

Current Version | Previous Version | Graphics & Text | Print | Product List | Glossary On
Versions: 1 2 3 4 5 6 7 8 9 10 11 12 13 14 15 16 17 18 19 20 21 22 23 24 25 26 27 28 29
620
FTUS41 KPBZ 090342 AAA
TAFPIT
TAF AMD
KPIT 090342Z 0904/1006 24004KT P6SM BKN019 BKN025 OVC180
     FM091300 29005KT 5SM -SHSN OVC010
     FM091500 29005KT 5SM -SHSN OVC007
     FM092200 30008KT P6SM BKN015=

USA.gov is the U.S. government's official web portal to all federal, state and local government web resources and services.